createdAt,value
2022-10-03T00:01:45.945Z,87.33
2022-10-03T00:04:34.830Z,87.38
2022-10-03T00:07:28.252Z,87.38
2022-10-03T00:10:13.708Z,87.72
2022-10-03T00:13:00.153Z,87.48
2022-10-03T00:15:31.707Z,87.61
2022-10-03T00:18:26.448Z,87.55
2022-10-03T00:21:15.114Z,87.61
2022-10-03T00:23:51.825Z,87.82
2022-10-03T00:26:37.545Z,87.83
2022-10-03T00:29:30.253Z,87.90
2022-10-03T00:32:16.425Z,87.70
2022-10-03T00:35:05.258Z,87.51
2022-10-03T00:37:55.509Z,87.62
2022-10-03T00:40:31.310Z,87.80
2022-10-03T00:43:27.550Z,87.55
2022-10-03T00:46:00.320Z,87.80
2022-10-03T00:48:41.986Z,87.59
2022-10-03T00:51:37.471Z,87.79
2022-10-03T00:54:24.279Z,87.95
2022-10-03T00:57:15.688Z,87.98
2022-10-03T00:59:48.115Z,87.80
2022-10-03T01:02:27.740Z,88.19
2022-10-03T01:05:25.661Z,87.83
2022-10-03T01:08:03.845Z,88.13
2022-10-03T01:10:36.549Z,88.15
2022-10-03T01:13:11.803Z,87.72
2022-10-03T01:15:56.921Z,87.74
2022-10-03T01:18:32.224Z,87.50
2022-10-03T01:21:08.022Z,87.35
2022-10-03T01:23:48.682Z,87.64
2022-10-03T01:26:26.573Z,87.57
2022-10-03T01:29:17.685Z,87.59
2022-10-03T01:31:52.077Z,87.65
2022-10-03T01:34:34.084Z,87.71
2022-10-03T01:37:22.688Z,87.65
2022-10-03T01:40:04.489Z,87.46
2022-10-03T01:42:51.447Z,87.39
2022-10-03T01:45:37.736Z,87.83
2022-10-03T01:48:12.988Z,87.63
2022-10-03T01:50:54.927Z,87.79
2022-10-03T01:53:38.324Z,87.66
2022-10-03T01:56:12.871Z,87.74
2022-10-03T01:58:49.722Z,88.07
2022-10-03T02:01:24.766Z,88.22
2022-10-03T02:04:04.547Z,87.93
2022-10-03T02:06:48.167Z,88.04
2022-10-03T02:09:39.480Z,88.01
2022-10-03T02:12:10.485Z,87.97
2022-10-03T02:14:47.913Z,88.15
2022-10-03T02:17:47.797Z,88.16
2022-10-03T02:20:28.935Z,88.06
2022-10-03T02:22:57.802Z,88.04
2022-10-03T02:25:31.471Z,88.00
2022-10-03T02:28:10.470Z,88.23
2022-10-03T02:31:06.852Z,88.11
2022-10-03T02:34:11.292Z,88.36
2022-10-03T02:37:10.457Z,88.04
2022-10-03T02:39:46.314Z,88.15
2022-10-03T02:42:52.428Z,88.09
2022-10-03T02:45:51.138Z,88.10
2022-10-03T02:48:32.783Z,88.33
2022-10-03T02:51:18.295Z,87.87
2022-10-03T02:54:18.389Z,87.88
2022-10-03T02:57:10.090Z,88.25
2022-10-03T02:59:51.880Z,88.20
2022-10-03T03:02:27.991Z,88.20
2022-10-03T03:05:18.611Z,88.38
2022-10-03T03:08:14.295Z,88.14
2022-10-03T03:10:59.721Z,87.92
2022-10-03T03:14:04.581Z,88.06
2022-10-03T03:16:57.259Z,87.76
2022-10-03T03:19:35.159Z,87.69
2022-10-03T03:22:12.906Z,87.85
2022-10-03T03:24:59.848Z,87.51
2022-10-03T03:28:05.317Z,87.59
2022-10-03T03:31:01.607Z,87.33
2022-10-03T03:34:07.679Z,87.38
2022-10-03T03:37:00.998Z,87.22
2022-10-03T03:39:42.914Z,87.22
2022-10-03T03:42:28.774Z,87.00
2022-10-03T03:45:29.706Z,86.61
2022-10-03T03:48:02.722Z,86.28
2022-10-03T03:50:43.598Z,86.03
2022-10-03T03:53:21.994Z,85.81
2022-10-03T03:56:17.595Z,85.85
2022-10-03T03:59:10.765Z,85.76
2022-10-03T04:01:49.329Z,85.33
2022-10-03T04:04:19.006Z,85.27
2022-10-03T04:06:56.567Z,85.29
2022-10-03T04:09:43.963Z,85.16
2022-10-03T04:12:50.802Z,85.12
2022-10-03T04:15:29.848Z,85.14
2022-10-03T04:18:35.155Z,84.77
2022-10-03T04:21:19.063Z,84.97
2022-10-03T04:24:00.159Z,85.16
2022-10-03T04:26:30.593Z,85.11
2022-10-03T04:29:30.624Z,85.00
2022-10-03T04:32:26.681Z,84.92
2022-10-03T04:35:31.329Z,84.71
2022-10-03T04:38:21.504Z,84.71
2022-10-03T04:41:13.465Z,85.09
2022-10-03T04:43:53.900Z,84.90
2022-10-03T04:46:29.858Z,84.77
2022-10-03T04:49:03.284Z,84.79
2022-10-03T04:51:36.521Z,84.86
2022-10-03T04:54:27.812Z,84.82
2022-10-03T04:56:59.917Z,84.87
2022-10-03T04:59:29.570Z,84.47
2022-10-03T05:02:03.564Z,84.83
2022-10-03T05:04:33.546Z,84.49
2022-10-03T05:07:18.913Z,84.65
2022-10-03T05:09:53.504Z,84.61
2022-10-03T05:12:42.373Z,84.44
2022-10-03T05:15:28.355Z,84.36
2022-10-03T05:18:11.205Z,84.41
2022-10-03T05:20:51.598Z,84.26
2022-10-03T05:23:33.169Z,84.11
2022-10-03T05:26:45.448Z,84.08
2022-10-03T05:29:50.605Z,83.89
2022-10-03T05:32:40.423Z,83.83
2022-10-03T05:35:29.416Z,83.50
2022-10-03T05:38:10.077Z,83.68
2022-10-03T05:40:40.195Z,83.13
2022-10-03T05:43:36.588Z,83.07
2022-10-03T05:46:31.151Z,83.13
2022-10-03T05:49:13.103Z,82.96
2022-10-03T05:51:53.929Z,82.91
2022-10-03T05:54:40.645Z,82.78
2022-10-03T05:57:29.568Z,82.33
2022-10-03T06:00:07.490Z,82.08
2022-10-03T06:03:14.373Z,81.92
2022-10-03T06:05:56.240Z,82.26
2022-10-03T06:08:46.591Z,82.03
2022-10-03T06:11:34.778Z,81.93
2022-10-03T06:14:30.080Z,81.99
2022-10-03T06:17:21.724Z,82.01
2022-10-03T06:19:55.732Z,81.92
2022-10-03T06:22:34.874Z,81.87
2022-10-03T06:25:10.996Z,81.88
2022-10-03T06:28:10.174Z,82.25
2022-10-03T06:31:02.088Z,81.96
2022-10-03T06:33:47.718Z,81.91
2022-10-03T06:36:39.712Z,81.99
2022-10-03T06:39:45.830Z,81.98
2022-10-03T06:42:28.325Z,82.05
2022-10-03T06:45:05.339Z,81.65
2022-10-03T06:48:00.123Z,81.68
2022-10-03T06:50:46.305Z,81.85
2022-10-03T06:53:31.981Z,81.78
2022-10-03T06:56:27.225Z,81.75
2022-10-03T06:59:06.216Z,81.51
2022-10-03T07:01:49.976Z,81.60
2022-10-03T07:04:59.488Z,81.03
2022-10-03T07:07:46.058Z,80.94
2022-10-03T07:10:45.173Z,81.19
2022-10-03T07:13:22.881Z,81.24
2022-10-03T07:16:26.928Z,80.92
2022-10-03T07:19:06.452Z,81.07
2022-10-03T07:22:11.196Z,80.91
2022-10-03T07:25:03.596Z,81.05
2022-10-03T07:27:51.224Z,81.10
2022-10-03T07:30:21.073Z,81.38
2022-10-03T07:33:24.175Z,81.39
2022-10-03T07:36:35.712Z,81.10
2022-10-03T07:39:33.537Z,81.28
2022-10-03T07:42:25.857Z,81.26
2022-10-03T07:45:36.063Z,81.35
2022-10-03T07:48:34.006Z,81.10
2022-10-03T07:51:08.230Z,81.15
2022-10-03T07:54:11.271Z,80.61
2022-10-03T07:57:07.518Z,81.01
2022-10-03T07:59:46.907Z,80.60
2022-10-03T08:02:34.967Z,81.05
2022-10-03T08:05:17.304Z,80.89
2022-10-03T08:08:03.612Z,80.45
2022-10-03T08:10:59.705Z,80.54
2022-10-03T08:13:52.173Z,79.96
2022-10-03T08:16:42.440Z,79.38
2022-10-03T08:19:24.649Z,79.52
2022-10-03T08:22:07.121Z,79.19
2022-10-03T08:24:40.073Z,78.07
2022-10-03T08:27:35.329Z,77.75
2022-10-03T08:30:08.229Z,78.11
2022-10-03T08:32:52.099Z,78.03
2022-10-03T08:35:50.516Z,77.81
2022-10-03T08:38:28.090Z,77.26
2022-10-03T08:41:14.281Z,77.55
2022-10-03T08:44:11.052Z,77.41
2022-10-03T08:47:12.332Z,77.40
2022-10-03T08:50:05.799Z,77.03
2022-10-03T08:53:04.268Z,77.09
2022-10-03T08:56:07.853Z,76.66
2022-10-03T08:58:51.440Z,76.50
2022-10-03T09:01:35.398Z,76.55
2022-10-03T09:04:30.270Z,75.75
2022-10-03T09:07:18.065Z,75.40
2022-10-03T09:09:54.864Z,75.46
2022-10-03T09:12:42.866Z,75.48
2022-10-03T09:15:48.694Z,75.16
2022-10-03T09:18:49.756Z,74.67
2022-10-03T09:21:26.274Z,75.16
2022-10-03T09:24:19.322Z,74.75
2022-10-03T09:27:00.252Z,74.40
2022-10-03T09:29:45.862Z,74.23
2022-10-03T09:32:40.766Z,74.08
2022-10-03T09:35:29.838Z,74.02
2022-10-03T09:38:24.430Z,73.76
2022-10-03T09:41:28.932Z,73.13
2022-10-03T09:44:33.379Z,72.52
2022-10-03T09:47:28.019Z,72.56
2022-10-03T09:50:21.726Z,71.87
2022-10-03T09:53:28.106Z,71.96
2022-10-03T09:56:11.462Z,71.57
2022-10-03T09:59:05.558Z,71.55
2022-10-03T10:01:44.269Z,72.01
2022-10-03T10:04:54.106Z,71.54
2022-10-03T10:07:37.978Z,70.93
2022-10-03T10:10:21.847Z,70.99
2022-10-03T10:13:11.208Z,71.04
2022-10-03T10:15:50.780Z,70.80
2022-10-03T10:18:41.708Z,71.02
2022-10-03T10:21:25.880Z,70.94
2022-10-03T10:24:14.265Z,71.01
2022-10-03T10:27:09.039Z,70.79
2022-10-03T10:30:12.549Z,70.89
2022-10-03T10:32:51.516Z,71.51
2022-10-03T10:35:44.664Z,71.09
2022-10-03T10:38:26.471Z,70.98
2022-10-03T10:41:27.578Z,70.17
2022-10-03T10:44:25.425Z,70.34
2022-10-03T10:47:12.695Z,70.32
2022-10-03T10:50:12.589Z,70.92
2022-10-03T10:52:51.519Z,71.16
2022-10-03T10:55:52.712Z,71.17
2022-10-03T10:58:40.825Z,70.81
2022-10-03T11:01:45.949Z,70.34
2022-10-03T11:04:50.714Z,69.38
2022-10-03T11:08:09.019Z,68.96
2022-10-03T11:10:39.586Z,69.12
2022-10-03T11:13:54.619Z,68.52
2022-10-03T11:16:56.120Z,67.62
2022-10-03T11:19:41.973Z,67.64
2022-10-03T11:22:37.624Z,67.69
2022-10-03T11:25:19.959Z,67.61
2022-10-03T11:28:18.711Z,67.33
2022-10-03T11:31:04.792Z,66.83
2022-10-03T11:34:09.464Z,66.93
2022-10-03T11:37:08.340Z,66.90
2022-10-03T11:39:42.118Z,66.85
2022-10-03T11:42:19.465Z,66.83
2022-10-03T11:44:54.986Z,67.25
2022-10-03T11:47:44.918Z,67.08
2022-10-03T11:50:20.905Z,67.48
2022-10-03T11:52:50.336Z,66.99
2022-10-03T11:55:47.473Z,67.68
2022-10-03T11:58:56.109Z,67.84
2022-10-03T12:01:28.961Z,67.52
2022-10-03T12:04:03.100Z,67.92
2022-10-03T12:07:12.039Z,68.11
2022-10-03T12:10:03.113Z,68.70
2022-10-03T12:12:42.332Z,69.19
2022-10-03T12:15:21.529Z,69.28
2022-10-03T12:18:03.554Z,69.50
2022-10-03T12:20:37.706Z,69.72
2022-10-03T12:23:26.421Z,69.74
2022-10-03T12:25:53.998Z,70.09
2022-10-03T12:28:28.648Z,70.22
2022-10-03T12:31:19.318Z,70.52
2022-10-03T12:33:59.617Z,70.45
2022-10-03T12:36:55.102Z,70.09
2022-10-03T12:39:30.969Z,70.30
2022-10-03T12:42:15.470Z,70.16
2022-10-03T12:44:51.573Z,70.54
2022-10-03T12:47:55.798Z,70.39
2022-10-03T12:50:32.765Z,70.45
2022-10-03T12:53:17.973Z,70.00
2022-10-03T12:56:12.644Z,68.92
2022-10-03T12:59:01.884Z,68.87
2022-10-03T13:01:55.496Z,68.47
2022-10-03T13:04:42.867Z,66.91
2022-10-03T13:07:52.518Z,67.39
2022-10-03T13:10:31.387Z,67.68
2022-10-03T13:13:10.556Z,67.57
2022-10-03T13:16:09.941Z,68.02
2022-10-03T13:18:56.410Z,68.44
2022-10-03T13:21:55.771Z,68.36
2022-10-03T13:24:33.612Z,68.09
2022-10-03T13:27:12.523Z,68.48
2022-10-03T13:29:42.665Z,68.30
2022-10-03T13:32:17.094Z,68.13
2022-10-03T13:35:44.793Z,68.10
2022-10-03T13:38:22.132Z,68.29
2022-10-03T13:41:01.217Z,67.99
2022-10-03T13:43:37.914Z,68.19
2022-10-03T13:46:17.931Z,68.13
2022-10-03T13:48:50.627Z,68.33
2022-10-03T13:52:03.293Z,68.28
2022-10-03T13:55:00.722Z,67.70
2022-10-03T13:57:42.791Z,67.49
2022-10-03T14:00:15.916Z,66.76
2022-10-03T14:03:01.790Z,66.30
2022-10-03T14:05:34.275Z,65.91
2022-10-03T14:08:10.710Z,65.73
2022-10-03T14:10:43.608Z,65.37
2022-10-03T14:13:34.881Z,65.23
2022-10-03T14:16:04.248Z,64.69
2022-10-03T14:18:31.157Z,63.95
2022-10-03T14:21:22.990Z,63.99
2022-10-03T14:23:53.163Z,64.23
2022-10-03T14:26:25.226Z,64.34
2022-10-03T14:29:01.999Z,64.05
2022-10-03T14:31:57.436Z,63.06
2022-10-03T14:34:40.733Z,63.08
2022-10-03T14:37:07.515Z,62.47
2022-10-03T14:39:57.838Z,63.04
2022-10-03T14:42:33.481Z,63.25
2022-10-03T14:45:03.743Z,63.21
2022-10-03T14:50:22.723Z,63.77
2022-10-03T14:52:55.355Z,64.61
2022-10-03T14:55:29.846Z,65.35
2022-10-03T14:58:10.811Z,65.54
2022-10-03T15:00:43.974Z,65.07
2022-10-03T15:07:49.500Z,64.80
2022-10-03T15:10:18.435Z,64.56
2022-10-03T15:25:30.496Z,65.03
2022-10-03T15:37:19.004Z,65.97
2022-10-03T15:39:48.243Z,66.46
2022-10-03T15:42:23.210Z,66.83
2022-10-03T15:44:57.089Z,66.75
2022-10-03T15:47:27.364Z,66.85
2022-10-03T15:49:59.713Z,67.00
2022-10-03T15:52:33.487Z,67.12
2022-10-03T15:55:11.572Z,67.03
2022-10-03T15:57:44.250Z,67.17
2022-10-03T16:00:21.753Z,67.27
2022-10-03T16:02:53.209Z,67.49
2022-10-03T16:05:27.845Z,67.59
2022-10-03T16:08:13.470Z,67.46
2022-10-03T16:11:50.388Z,67.75
2022-10-03T16:14:30.179Z,67.90
2022-10-03T16:17:02.891Z,67.98
2022-10-03T16:19:55.213Z,68.35
2022-10-03T16:22:41.906Z,68.68
2022-10-03T16:25:19.507Z,68.77
2022-10-03T16:28:25.419Z,68.80
2022-10-03T16:31:01.459Z,69.13
2022-10-03T16:33:33.536Z,69.58
2022-10-03T16:36:05.087Z,69.51
2022-10-03T16:38:51.919Z,69.85
2022-10-03T16:41:26.477Z,70.22
2022-10-03T16:43:59.689Z,70.56
2022-10-03T16:46:35.225Z,70.61
2022-10-03T16:49:23.499Z,70.67
2022-10-03T16:52:00.722Z,71.11
2022-10-03T16:54:28.221Z,71.11
2022-10-03T16:56:59.236Z,71.45
2022-10-03T16:59:27.154Z,71.46
2022-10-03T17:01:56.743Z,71.48
2022-10-03T17:04:36.406Z,71.85
2022-10-03T17:07:26.493Z,72.35
2022-10-03T17:09:56.493Z,72.21
2022-10-03T17:12:30.550Z,72.76
2022-10-03T17:15:01.746Z,72.97
2022-10-03T17:17:37.798Z,72.96
2022-10-03T17:20:18.914Z,73.37
2022-10-03T17:22:52.839Z,73.33
2022-10-03T17:25:48.428Z,73.88
2022-10-03T17:28:26.244Z,74.36
2022-10-03T17:30:55.025Z,74.43
2022-10-03T17:33:46.681Z,74.70
2022-10-03T17:36:45.341Z,74.78
2022-10-03T17:39:51.076Z,75.22
2022-10-03T17:42:41.145Z,74.96
2022-10-03T17:45:37.831Z,75.59
2022-10-03T17:48:25.272Z,75.49
2022-10-03T17:50:56.367Z,75.80
2022-10-03T17:53:31.537Z,76.23
2022-10-03T17:56:08.314Z,76.28
2022-10-03T17:58:38.266Z,76.53
2022-10-03T18:01:36.176Z,76.87
2022-10-03T18:04:05.690Z,77.32
2022-10-03T18:06:43.421Z,77.54
2022-10-03T18:09:17.361Z,77.64
2022-10-03T18:11:46.137Z,77.96
2022-10-03T18:14:31.531Z,77.99
2022-10-03T18:17:12.910Z,77.89
2022-10-03T18:19:58.364Z,77.97
2022-10-03T18:22:40.725Z,78.03
2022-10-03T18:26:20.069Z,78.28
2022-10-03T18:29:00.876Z,78.12
2022-10-03T18:31:34.641Z,78.50
2022-10-03T18:45:30.206Z,78.62
2022-10-03T18:48:09.957Z,79.10
2022-10-03T18:50:50.547Z,79.05
2022-10-03T18:53:35.179Z,79.18
2022-10-03T18:56:06.274Z,79.26
2022-10-03T18:58:35.832Z,79.44
2022-10-03T19:01:25.396Z,79.82
2022-10-03T19:03:58.572Z,79.81
2022-10-03T19:06:28.183Z,80.02
2022-10-03T19:09:16.076Z,80.18
2022-10-03T19:12:18.426Z,80.49
2022-10-03T19:15:10.750Z,80.39
2022-10-03T19:18:09.566Z,80.50
2022-10-03T19:20:43.298Z,81.02
2022-10-03T19:23:19.945Z,80.85
2022-10-03T19:25:50.070Z,81.07
2022-10-03T19:28:30.126Z,80.91
2022-10-03T19:30:59.517Z,81.14
2022-10-03T19:33:27.828Z,81.33
2022-10-03T19:35:58.419Z,81.35
2022-10-03T19:38:28.594Z,81.63
2022-10-03T19:41:06.411Z,81.83
2022-10-03T19:43:39.245Z,82.04
2022-10-03T19:46:15.212Z,82.07
2022-10-03T19:49:00.458Z,82.27
2022-10-03T19:51:28.241Z,82.41
2022-10-03T19:54:00.168Z,82.73
2022-10-03T19:56:31.375Z,83.01
2022-10-03T19:59:07.521Z,83.03
2022-10-03T20:01:50.228Z,83.01
2022-10-03T20:04:36.604Z,83.09
2022-10-03T20:07:18.173Z,83.38
2022-10-03T20:09:56.412Z,83.49
2022-10-03T20:12:26.579Z,83.59
2022-10-03T20:14:53.514Z,83.54
2022-10-03T20:17:24.102Z,83.69
2022-10-03T20:19:57.392Z,83.50
2022-10-03T20:22:26.242Z,83.56
2022-10-03T20:24:53.101Z,83.59
2022-10-03T20:27:32.822Z,83.80
2022-10-03T20:30:24.715Z,84.00
2022-10-03T20:32:52.628Z,83.90
2022-10-03T20:35:28.312Z,83.72
2022-10-03T20:38:02.820Z,84.00
2022-10-03T20:40:42.422Z,83.90
2022-10-03T20:43:41.374Z,84.19
2022-10-03T20:46:33.737Z,84.44
2022-10-03T20:49:26.701Z,84.63
2022-10-03T20:51:55.676Z,85.00
2022-10-03T20:54:25.229Z,85.16
2022-10-03T20:57:06.203Z,84.78
2022-10-03T20:59:48.682Z,85.34
2022-10-03T21:02:19.143Z,85.17
2022-10-03T21:05:02.287Z,85.26
2022-10-03T21:08:05.931Z,85.32
2022-10-03T21:10:57.248Z,85.62
2022-10-03T21:13:36.663Z,85.46
2022-10-03T21:16:05.101Z,85.66
2022-10-03T21:18:34.380Z,85.85
2022-10-03T21:21:04.202Z,85.80
2022-10-03T21:23:35.542Z,85.41
2022-10-03T21:26:02.657Z,85.66
2022-10-03T21:28:34.462Z,85.69
2022-10-03T21:31:07.764Z,85.48
2022-10-03T21:34:12.312Z,85.16
2022-10-03T21:36:50.599Z,85.24
2022-10-03T21:39:32.836Z,84.92
2022-10-03T21:42:16.509Z,84.89
2022-10-03T21:45:21.002Z,84.77
2022-10-03T21:47:51.336Z,84.98
2022-10-03T21:50:23.082Z,84.91
2022-10-03T21:52:56.008Z,84.62
2022-10-03T21:55:51.735Z,84.71
2022-10-03T21:58:46.881Z,84.61
2022-10-03T22:01:33.668Z,84.85
2022-10-03T22:04:34.096Z,85.05
2022-10-03T22:07:36.784Z,84.82
2022-10-03T22:10:06.039Z,84.95
2022-10-03T22:12:42.445Z,85.06
2022-10-03T22:15:21.379Z,84.70
2022-10-03T22:17:56.927Z,84.81
2022-10-03T22:20:28.951Z,85.13
2022-10-03T22:23:16.451Z,84.93
2022-10-03T22:26:01.601Z,84.74
2022-10-03T22:29:10.647Z,84.51
2022-10-03T22:32:00.878Z,84.70
2022-10-03T22:34:42.016Z,84.38
2022-10-03T22:37:09.054Z,84.57
2022-10-03T22:39:36.182Z,84.45
2022-10-03T22:42:03.764Z,84.43
2022-10-03T22:44:34.813Z,84.65
2022-10-03T22:47:13.601Z,84.24
2022-10-03T22:49:42.463Z,84.34
2022-10-03T22:52:17.141Z,84.08
2022-10-03T22:54:45.555Z,84.18
2022-10-03T22:57:13.189Z,84.30
2022-10-03T22:59:51.172Z,84.27
2022-10-03T23:02:18.809Z,84.49
2022-10-03T23:04:53.213Z,84.38
2022-10-03T23:07:30.462Z,84.58
2022-10-03T23:10:06.267Z,84.23
2022-10-03T23:12:42.668Z,84.27
2022-10-03T23:15:10.242Z,84.14
2022-10-03T23:17:59.167Z,84.24
2022-10-03T23:20:41.136Z,84.40
2022-10-03T23:23:17.210Z,84.30
2022-10-03T23:25:58.509Z,84.29
2022-10-03T23:28:32.027Z,84.32
2022-10-03T23:30:58.840Z,83.98
2022-10-03T23:33:32.598Z,84.17
2022-10-03T23:36:14.117Z,84.00
2022-10-03T23:38:40.790Z,83.91
2022-10-03T23:41:15.067Z,84.05
2022-10-03T23:43:44.897Z,84.35
2022-10-03T23:46:15.885Z,84.08
2022-10-03T23:48:43.587Z,84.04
2022-10-03T23:51:14.435Z,84.28
2022-10-03T23:53:45.272Z,84.23
2022-10-03T23:56:21.501Z,84.28
2022-10-03T23:59:03.581Z,84.14
